Startpagina
METAR-TAF:

METAR-TAF

Vliegvelden :

Damascus, Syrië

Luchthaven Damascus

breedte: 33-25N, lengte: 036-31E, hoogte: 608 m

Actueel weer

Dit bericht is 6 minuten geleden gemaakt, om 16:00 UTC
Wind 12 kt uit het zuidwesten
Temperatuur 18°C
Vochtigheid 52%
Druk 1015 hPa
Zicht 10 km of meer
Weinig wolken op 3000 ft
Verspreide wolken op 10000 ft

METAR: OSDI 191600Z 22012KT 9999 FEW030 SCT100 18/08 Q1015

Tijdstip: 18:06 (16:06 UTC)

Verwachting

Dit bericht is 5 uur en het 6 minuten geleden gemaakt, om 11:00 UTC
Verwachting geldig van 19 om 12 UTC tot 20 om 18 UTC
Wind 10 kt uit het zuidwesten
Zicht 10 km of meer
Weinig wolken op 3000 ft
Tijdelijke
van 19 om 18 UTC tot 20 om 06 UTC
Wind 3 kt uit variabele richting
Zicht 10 km of meer
geen wolken onder 1500 m en geen cumulonimbus

TAF: OSDI 191100Z 1912/2018 22010KT 9999 FEW030 TEMPO 1918/2006 VRB03KT CAVOK

Waarnemingen en weersverwachtingen van meer dan 4000 vliegvelden (METAR en TAF).

De beschikbare stations zijn de gele en rode punten op de kaart.

Ga met uw muis naar het station om de naam te zien.

Klik dan om waarnemingen en weersverwachtingen te zien.

kaart wijzigen: klik op de groene knoppen met een zwart kruis om in te zoomen, op de groene knop met een streepje om uit te zoomen of op de groene pijlen voor aangrenzende kaarten.


METAR-TAF: